Time;durP1;ratioP1;P1;durP2;ratioP2;P2;SDS_P1;SDS_P2;PMS_P1;PMS_P2;Temp;Humidity;BMP_temperature;BMP_pressure;BME280_temperature;BME280_humidity;BME280_pressure;Samples;Min_cycle;Max_cycle;Signal;HPM_P1;HPM_P2
2023/04/25 00:00:00;;;;;;;21.20;5.95;;;;;;;6.55;95.34;100931.63;5036166;28;20072;-79
2023/04/25 00:02:25;;;;;;;19.25;5.72;;;;;;;6.54;95.21;100935.22;5035946;28;20032;-79
2023/04/25 00:04:51;;;;;;;25.55;6.32;;;;;;;6.55;94.95;100942.28;5053840;28;20159;-79
2023/04/25 00:07:17;;;;;;;18.65;6.13;;;;;;;6.57;95.86;100939.53;5035737;28;20059;-79
2023/04/25 00:09:42;;;;;;;26.05;6.00;;;;;;;6.57;95.29;100950.22;5053916;28;20070;-79
2023/04/25 00:12:08;;;;;;;23.08;6.50;;;;;;;6.53;95.47;100948.66;5054092;28;20036;-79
2023/04/25 00:14:33;;;;;;;23.20;5.72;;;;;;;6.49;96.52;100953.31;5053747;28;20108;-79
2023/04/25 00:16:59;;;;;;;21.50;5.70;;;;;;;6.42;95.85;100954.59;5053552;28;20025;-79
2023/04/25 00:19:26;;;;;;;26.17;6.18;;;;;;;6.36;96.49;100954.94;5035711;28;20032;-79
2023/04/25 00:21:52;;;;;;;20.10;5.70;;;;;;;6.33;96.42;100960.44;5035585;28;20025;-77
2023/04/25 00:24:17;;;;;;;17.33;5.85;;;;;;;6.30;96.54;100966.78;5035333;28;20029;-77
2023/04/25 00:26:42;;;;;;;23.83;5.90;;;;;;;6.30;96.28;100966.78;5035498;28;20048;-77
2023/04/25 00:29:07;;;;;;;19.92;6.55;;;;;;;6.28;96.72;100961.53;5035498;28;20146;-77
2023/04/25 00:31:33;;;;;;;22.52;5.90;;;;;;;6.31;97.09;100960.53;5035304;28;20032;-77
2023/04/25 00:33:58;;;;;;;21.33;5.50;;;;;;;6.29;97.68;100959.72;5035401;28;20052;-77
2023/04/25 00:36:24;;;;;;;19.98;5.30;;;;;;;6.23;98.29;100957.41;5052064;28;20122;-77
2023/04/25 00:38:49;;;;;;;25.17;7.18;;;;;;;6.14;98.52;100953.41;5053332;28;20126;-77
2023/04/25 00:41:15;;;;;;;28.52;5.97;;;;;;;6.06;98.73;100956.50;5053618;28;20025;-77
2023/04/25 00:43:41;;;;;;;21.92;6.75;;;;;;;6.06;98.26;100955.59;5053065;28;20142;-77
2023/04/25 00:46:06;;;;;;;18.52;5.78;;;;;;;6.00;98.33;100951.44;5034936;28;20033;-77
2023/04/25 00:48:32;;;;;;;21.05;5.85;;;;;;;5.95;98.36;100949.00;5035080;28;20388;-77
2023/04/25 00:50:58;;;;;;;27.02;6.28;;;;;;;5.94;98.86;100951.75;5035187;28;20029;-77
2023/04/25 00:53:25;;;;;;;20.95;5.78;;;;;;;5.87;99.33;100948.56;5035021;28;20033;-77
2023/04/25 00:55:51;;;;;;;17.65;5.68;;;;;;;5.89;99.74;100953.81;5035174;28;20032;-77
2023/04/25 00:58:21;;;;;;;26.20;5.78;;;;;;;5.90;100.00;100951.06;5053004;28;20447;-77
2023/04/25 01:00:47;;;;;;;;;;;;;;;6.01;98.53;100958.53;5035680;28;20028;-74
2023/04/25 01:03:17;;;;;;;22.40;6.22;;;;;;;5.91;100.00;100955.44;5034759;28;19943;-75
2023/04/25 01:05:43;;;;;;;16.08;4.90;;;;;;;5.88;100.00;100955.59;5052662;28;20043;-74
2023/04/25 01:08:08;;;;;;;29.02;6.80;;;;;;;5.86;99.39;100954.81;5052815;28;20033;-73
2023/04/25 01:10:34;;;;;;;18.92;5.55;;;;;;;5.80;99.75;100949.81;5034536;28;20025;-74
2023/04/25 01:12:59;;;;;;;19.70;5.70;;;;;;;5.74;99.59;100950.09;5052733;28;20036;-74
2023/04/25 01:15:25;;;;;;;22.58;5.75;;;;;;;5.68;99.90;100953.09;5052251;28;20048;-75
2023/04/25 01:17:50;;;;;;;20.38;5.88;;;;;;;5.63;99.97;100947.16;5052611;28;20033;-74
2023/04/25 01:20:16;;;;;;;19.48;6.20;;;;;;;5.55;100.00;100955.50;5052465;28;20029;-74
2023/04/25 01:22:42;;;;;;;20.50;6.32;;;;;;;5.46;99.82;100956.88;5034335;28;20067;-74
2023/04/25 01:25:09;;;;;;;21.63;6.95;;;;;;;5.40;100.00;100963.38;5052213;28;20120;-74
2023/04/25 01:27:36;;;;;;;22.50;6.15;;;;;;;5.35;99.90;100959.19;5052430;28;20104;-74
2023/04/25 01:30:02;;;;;;;23.98;6.40;;;;;;;5.32;100.00;100962.03;5043909;28;20451;-74
2023/04/25 01:32:27;;;;;;;18.63;5.43;;;;;;;5.29;100.00;100959.50;5034265;28;20025;-74
2023/04/25 01:34:53;;;;;;;14.23;4.97;;;;;;;5.27;100.00;100956.03;5034093;28;20048;-74
2023/04/25 01:37:18;;;;;;;22.63;5.85;;;;;;;5.23;100.00;100961.53;5052141;28;20044;-74
2023/04/25 01:39:44;;;;;;;17.92;5.75;;;;;;;5.20;100.00;100972.34;5052258;28;20182;-73
2023/04/25 01:42:10;;;;;;;24.00;6.60;;;;;;;5.17;100.00;100971.59;5034029;28;20036;-74
2023/04/25 01:44:35;;;;;;;22.88;5.97;;;;;;;5.14;100.00;100964.66;5051681;28;20028;-74
2023/04/25 01:47:00;;;;;;;23.73;6.28;;;;;;;5.08;100.00;100965.81;5033602;28;20383;-74
2023/04/25 01:49:26;;;;;;;22.42;6.57;;;;;;;5.04;100.00;100966.88;5051804;28;20022;-74
2023/04/25 01:51:51;;;;;;;20.25;5.95;;;;;;;5.05;100.00;100967.75;5034119;28;20029;-74
2023/04/25 01:54:18;;;;;;;21.15;5.68;;;;;;;5.05;100.00;100967.75;5051706;28;20484;-74
2023/04/25 01:56:43;;;;;;;21.17;6.07;;;;;;;5.04;100.00;100966.88;5051787;28;20041;-74
2023/04/25 01:59:08;;;;;;;25.55;6.45;;;;;;;5.07;100.00;100966.75;5033146;28;20091;-75
2023/04/25 02:01:34;;;;;;;21.02;6.50;;;;;;;5.12;100.00;100973.66;5051579;28;20029;-74
2023/04/25 02:03:59;;;;;;;21.27;6.60;;;;;;;5.16;100.00;100976.09;5051627;28;20430;-74
2023/04/25 02:06:24;;;;;;;21.20;6.10;;;;;;;5.20;100.00;100977.66;5033618;28;20033;-74
2023/04/25 02:08:50;;;;;;;23.67;7.15;;;;;;;5.25;100.00;100980.09;5051524;28;20048;-74
2023/04/25 02:11:15;;;;;;;25.40;7.28;;;;;;;5.28;100.00;100987.94;5051698;28;20349;-74
2023/04/25 02:13:40;;;;;;;24.05;7.47;;;;;;;5.34;100.00;100994.78;5033317;28;20337;-74
2023/04/25 02:16:06;;;;;;;23.27;7.18;;;;;;;5.34;100.00;100979.63;5033666;28;20120;-74
2023/04/25 02:18:31;;;;;;;22.17;6.10;;;;;;;5.35;100.00;100986.72;5033342;28;20064;-74
2023/04/25 02:21:01;;;;;;;28.73;6.80;;;;;;;5.37;100.00;100979.53;5051317;28;20033;-75
2023/04/25 02:23:27;;;;;;;24.35;7.35;;;;;;;5.36;100.00;100987.56;5051288;28;20033;-74
2023/04/25 02:25:55;;;;;;;19.90;5.75;;;;;;;5.33;100.00;100987.72;5033142;28;20151;-74
2023/04/25 02:28:21;;;;;;;26.52;6.55;;;;;;;5.36;100.00;100990.22;5051129;28;20068;-74
2023/04/25 02:30:46;;;;;;;24.45;6.97;;;;;;;5.36;100.00;100990.22;5051110;28;20082;-74
2023/04/25 02:33:11;;;;;;;24.75;6.03;;;;;;;5.31;100.00;100993.13;5051244;28;20032;-74
2023/04/25 02:35:37;;;;;;;23.15;6.85;;;;;;;5.26;100.00;100987.16;5033082;28;20021;-75
2023/04/25 02:38:02;;;;;;;21.73;7.13;;;;;;;5.24;100.00;100989.03;5033095;28;20032;-74
2023/04/25 02:40:27;;;;;;;22.15;6.95;;;;;;;5.19;100.00;100989.25;5051116;28;20091;-74
2023/04/25 02:42:52;;;;;;;21.42;7.00;;;;;;;5.13;100.00;100989.56;5050914;28;20047;-74
2023/04/25 02:45:18;;;;;;;20.13;5.97;;;;;;;5.05;100.00;100992.59;5032916;28;20025;-74
2023/04/25 02:47:43;;;;;;;21.67;6.95;;;;;;;4.96;100.00;100990.34;5032952;28;20028;-74
2023/04/25 02:50:09;;;;;;;25.17;7.22;;;;;;;4.94;100.00;100989.56;5050768;28;20052;-74
2023/04/25 02:52:34;;;;;;;24.00;6.05;;;;;;;4.90;100.00;100986.22;5051009;28;20025;-74
2023/04/25 02:54:59;;;;;;;19.77;5.85;;;;;;;4.85;100.00;100987.34;5051037;28;20380;-74
2023/04/25 02:57:25;;;;;;;19.67;6.00;;;;;;;4.82;100.00;100990.16;5027418;28;20033;-74
2023/04/25 02:59:50;;;;;;;25.45;6.90;;;;;;;4.80;100.00;100990.25;5049984;28;20039;-74
2023/04/25 03:02:15;;;;;;;20.05;5.88;;;;;;;4.79;100.00;100988.50;5050686;28;20491;-74
2023/04/25 03:04:41;;;;;;;24.73;5.93;;;;;;;4.76;100.00;100993.09;5032895;28;20024;-74
2023/04/25 03:07:09;;;;;;;20.80;6.82;;;;;;;4.73;100.00;100996.78;5032912;28;20033;-74
2023/04/25 03:09:35;;;;;;;19.77;6.82;;;;;;;4.71;100.00;100990.66;5050645;28;20380;-74
2023/04/25 03:12:01;;;;;;;24.33;7.32;;;;;;;4.71;100.00;101001.31;5050658;28;20033;-74
2023/04/25 03:14:26;;;;;;;24.83;7.07;;;;;;;4.73;100.00;101004.78;5050797;28;20021;-74
2023/04/25 03:16:51;;;;;;;21.25;6.60;;;;;;;4.76;100.00;100993.09;5032794;28;20076;-74
2023/04/25 03:19:18;;;;;;;20.23;5.70;;;;;;;4.78;100.00;100994.75;5032675;28;20033;-74
2023/04/25 03:21:43;;;;;;;26.30;6.88;;;;;;;4.77;100.00;101002.81;5050495;28;20121;-74
2023/04/25 03:24:10;;;;;;;25.45;6.50;;;;;;;4.79;100.00;101000.94;5050660;28;20608;-74
2023/04/25 03:26:36;;;;;;;25.48;7.47;;;;;;;4.78;100.00;100996.56;5032311;28;20127;-75
2023/04/25 03:29:01;;;;;;;23.00;6.15;;;;;;;4.80;100.00;101000.00;5050621;28;20394;-74
2023/04/25 03:31:26;;;;;;;26.15;7.82;;;;;;;4.81;100.00;100997.28;5050542;28;20067;-74
2023/04/25 03:33:51;;;;;;;23.58;7.15;;;;;;;4.81;100.00;100999.09;5032611;28;20212;-74
2023/04/25 03:36:17;;;;;;;18.60;6.45;;;;;;;4.83;100.00;101003.41;5050500;28;20377;-74
2023/04/25 03:38:42;;;;;;;21.83;6.82;;;;;;;4.85;100.00;101006.00;5032539;28;20115;-74
2023/04/25 03:41:08;;;;;;;22.13;7.07;;;;;;;4.88;100.00;101003.19;5050353;28;20472;-74
2023/04/25 03:43:33;;;;;;;22.33;7.38;;;;;;;4.92;100.00;100998.56;5032414;28;20468;-74
2023/04/25 03:45:59;;;;;;;22.02;7.18;;;;;;;4.93;100.00;101001.16;5050714;28;20081;-74
2023/04/25 03:48:25;;;;;;;20.88;7.00;;;;;;;4.94;100.00;100994.06;5032496;28;20028;-74
2023/04/25 03:50:52;;;;;;;23.65;6.30;;;;;;;4.93;100.00;101000.31;5050349;28;20365;-74
2023/04/25 03:53:17;;;;;;;22.30;6.82;;;;;;;4.95;100.00;101007.28;5050396;28;20029;-74
2023/04/25 03:55:42;;;;;;;23.55;6.88;;;;;;;4.98;100.00;101004.47;5032467;28;20472;-74
2023/04/25 03:58:08;;;;;;;19.90;6.05;;;;;;;5.02;100.00;101010.50;5032445;28;20028;-74
2023/04/25 04:00:34;;;;;;;26.05;6.13;;;;;;;5.07;100.00;101011.16;5050147;28;20032;-74
2023/04/25 04:02:59;;;;;;;20.50;5.60;;;;;;;5.11;100.00;101010.09;5032310;28;20029;-74
2023/04/25 04:05:25;;;;;;;23.67;6.57;;;;;;;5.14;100.00;101007.28;5032190;28;20395;-74
2023/04/25 04:07:50;;;;;;;25.33;6.07;;;;;;;5.16;100.00;101016.06;5050229;28;20148;-74
2023/04/25 04:10:15;;;;;;;19.23;6.25;;;;;;;5.17;100.00;101017.78;5051523;28;20119;-74
2023/04/25 04:12:41;;;;;;;22.23;6.60;;;;;;;5.20;100.00;101024.78;5035953;28;20036;-74
2023/04/25 04:15:07;;;;;;;21.35;6.70;;;;;;;5.21;100.00;101021.16;5035756;28;20036;-74
2023/04/25 04:17:33;;;;;;;29.65;6.63;;;;;;;5.23;100.00;101025.47;5035610;28;20032;-74
2023/04/25 04:19:58;;;;;;;24.27;6.90;;;;;;;5.24;100.00;101029.88;5053589;28;20029;-74
2023/04/25 04:22:24;;;;;;;23.05;7.90;;;;;;;5.27;100.00;101031.53;5035685;28;20395;-74
2023/04/25 04:24:49;;;;;;;21.83;6.68;;;;;;;5.30;100.00;101033.16;5046934;28;20398;-74
2023/04/25 04:27:17;;;;;;;24.85;6.15;;;;;;;5.32;100.00;101040.16;5052414;28;20036;-74
2023/04/25 04:29:43;;;;;;;23.13;6.40;;;;;;;5.33;100.00;101033.00;5035236;28;20052;-74
2023/04/25 04:32:08;;;;;;;24.42;7.03;;;;;;;5.33;100.00;101033.00;5035487;28;20063;-74
2023/04/25 04:34:34;;;;;;;24.02;7.47;;;;;;;5.35;100.00;101039.16;5053382;28;20056;-74
2023/04/25 04:37:00;;;;;;;19.33;6.18;;;;;;;5.38;100.00;101036.34;5035322;28;20029;-74
2023/04/25 04:39:25;;;;;;;20.63;6.40;;;;;;;5.40;100.00;101039.78;5035260;28;20420;-74
2023/04/25 04:41:51;;;;;;;22.85;6.10;;;;;;;5.41;100.00;101037.03;5053262;28;20028;-74
2023/04/25 04:44:16;;;;;;;19.15;5.88;;;;;;;5.44;100.00;101038.69;5053138;28;20360;-74
2023/04/25 04:46:41;;;;;;;22.25;5.63;;;;;;;5.43;100.00;101037.84;5035140;28;20021;-74
2023/04/25 04:49:16;;;;;;;26.65;6.43;;;;;;;5.40;100.00;101042.44;5052957;28;20033;-74
2023/04/25 04:51:44;;;;;;;22.40;6.63;;;;;;;5.37;100.00;101053.25;5053137;28;20036;-74
2023/04/25 04:54:09;;;;;;;27.35;7.18;;;;;;;5.35;100.00;101055.16;5052820;28;20025;-74
2023/04/25 04:56:34;;;;;;;23.70;6.88;;;;;;;5.34;100.00;101056.06;5035113;28;20207;-74
2023/04/25 04:59:01;;;;;;;22.63;6.03;;;;;;;5.32;100.00;101061.47;5052943;28;20092;-74
2023/04/25 05:01:27;;;;;;;24.00;7.15;;;;;;;5.29;100.00;101072.28;5052870;28;20453;-74
2023/04/25 05:03:52;;;;;;;21.17;6.25;;;;;;;5.29;100.00;101066.97;5034857;28;20037;-74
2023/04/25 05:06:21;;;;;;;20.98;6.28;;;;;;;5.31;100.00;101072.22;5052643;28;20370;-76
2023/04/25 05:08:46;;;;;;;21.67;6.97;;;;;;;5.32;100.00;101077.47;5052667;28;20044;-76
2023/04/25 05:11:11;;;;;;;23.42;6.82;;;;;;;5.35;100.00;101077.31;5052847;28;20127;-76
2023/04/25 05:13:37;;;;;;;22.85;6.05;;;;;;;5.37;100.00;101082.56;5052675;28;20036;-76
2023/04/25 05:16:02;;;;;;;21.80;6.93;;;;;;;5.41;100.00;101089.50;5052674;28;20037;-76
2023/04/25 05:18:27;;;;;;;30.30;7.85;;;;;;;5.45;100.00;101085.75;5034478;28;20025;-76
2023/04/25 05:20:53;;;;;;;19.98;6.55;;;;;;;5.48;100.00;101093.59;5052308;28;20039;-76
2023/04/25 05:23:18;;;;;;;25.80;7.78;;;;;;;5.57;100.00;101089.63;5051931;28;20436;-76
2023/04/25 05:25:44;;;;;;;26.90;8.57;;;;;;;5.65;100.00;101094.56;5051088;28;20052;-76
2023/04/25 05:28:13;;;;;;;26.00;6.95;;;;;;;5.71;100.00;101102.25;5052627;28;20035;-76
2023/04/25 05:30:39;;;;;;;23.52;7.80;;;;;;;5.78;100.00;101099.25;5052319;28;20194;-76
2023/04/25 05:33:04;;;;;;;23.98;6.65;;;;;;;5.84;100.00;101106.09;5034360;28;20453;-76
2023/04/25 05:35:29;;;;;;;24.67;7.20;;;;;;;5.86;100.00;101100.69;5034261;28;20040;-76
2023/04/25 05:37:55;;;;;;;26.55;7.90;;;;;;;5.91;99.82;101101.28;5052062;28;20032;-76
2023/04/25 05:40:20;;;;;;;28.55;7.47;;;;;;;5.94;100.00;101102.03;5052291;28;20147;-77
2023/04/25 05:42:46;;;;;;;22.98;7.38;;;;;;;5.97;100.00;101101.00;5034272;28;20021;-76
2023/04/25 05:45:11;;;;;;;29.23;7.32;;;;;;;6.01;100.00;101097.25;5051883;28;20029;-76
2023/04/25 05:47:36;;;;;;;28.40;6.90;;;;;;;6.08;100.00;101108.50;5034077;28;20029;-76
2023/04/25 05:50:01;;;;;;;23.02;7.00;;;;;;;6.11;99.92;101103.84;5051889;28;20036;-76
2023/04/25 05:52:27;;;;;;;23.67;6.88;;;;;;;6.15;99.90;101117.94;5051885;28;20079;-76
2023/04/25 05:54:52;;;;;;;28.00;8.35;;;;;;;6.19;98.77;101121.28;5052033;28;20036;-76
2023/04/25 05:57:25;;;;;;;23.23;7.88;;;;;;;6.23;98.09;101122.88;5051956;28;20091;-76
2023/04/25 05:59:51;;;;;;;27.20;8.43;;;;;;;6.26;97.96;101134.22;5052001;28;20033;-76
2023/04/25 06:02:17;;;;;;;24.45;8.20;;;;;;;6.28;97.52;101142.16;5033833;28;20036;-76
2023/04/25 06:04:43;;;;;;;25.15;7.15;;;;;;;6.29;97.98;101139.41;5051606;28;20029;-76
2023/04/25 06:07:08;;;;;;;25.75;7.20;;;;;;;6.36;98.14;101133.78;5033584;28;20484;-76
2023/04/25 06:09:34;;;;;;;31.25;7.75;;;;;;;6.39;97.26;101138.97;5051590;28;20032;-76
2023/04/25 06:11:59;;;;;;;25.35;7.35;;;;;;;6.43;97.59;101145.88;5051758;28;20077;-76
2023/04/25 06:14:25;;;;;;;23.70;7.20;;;;;;;6.44;96.99;101145.81;5033494;28;20044;-76
2023/04/25 06:16:50;;;;;;;25.85;6.80;;;;;;;6.47;95.85;101145.66;5033676;28;20429;-76
2023/04/25 06:19:15;;;;;;;23.00;6.53;;;;;;;6.48;94.62;101144.69;5033451;28;20112;-76
2023/04/25 06:21:43;;;;;;;24.98;7.38;;;;;;;6.50;95.60;101152.63;5033267;28;20025;-76
2023/04/25 06:24:08;;;;;;;21.02;6.15;;;;;;;6.50;95.28;101155.31;5051350;28;20036;-76
2023/04/25 06:26:33;;;;;;;21.30;6.38;;;;;;;6.48;94.96;101159.84;5051132;28;20045;-77
2023/04/25 06:28:59;;;;;;;20.83;5.30;;;;;;;6.45;90.61;101155.53;5051246;28;20025;-77
2023/04/25 06:31:25;;;;;;;17.02;5.07;;;;;;;6.47;92.95;101158.09;5051371;28;20032;-76
2023/04/25 06:33:50;;;;;;;19.05;4.43;;;;;;;6.48;92.65;101154.50;5051163;28;20441;-76
2023/04/25 06:36:15;;;;;;;16.55;4.93;;;;;;;6.52;91.16;101157.91;5033093;28;20025;-76
2023/04/25 06:38:40;;;;;;;21.13;4.65;;;;;;;6.56;90.09;101165.66;5051250;28;20021;-76
2023/04/25 06:41:06;;;;;;;19.52;3.67;;;;;;;6.60;89.56;101164.56;5050998;28;20108;-76
2023/04/25 06:43:33;;;;;;;14.20;3.67;;;;;;;6.63;88.25;101164.41;5033150;28;20232;-76
2023/04/25 06:46:00;;;;;;;15.45;4.57;;;;;;;6.67;88.24;101170.44;5033112;28;20025;-76
2023/04/25 06:48:26;;;;;;;16.98;3.58;;;;;;;6.69;84.85;101173.03;5051034;28;20043;-76
2023/04/25 06:50:51;;;;;;;22.25;4.50;;;;;;;6.72;83.12;101178.22;5050891;28;20028;-76
2023/04/25 06:53:17;;;;;;;21.30;3.90;;;;;;;6.72;82.64;101179.09;5051043;28;20029;-76
2023/04/25 06:55:42;;;;;;;14.50;3.50;;;;;;;6.73;83.28;101178.13;5051081;28;20103;-76
2023/04/25 06:58:07;;;;;;;16.15;3.80;;;;;;;6.75;83.99;101183.38;5050917;28;20495;-76
2023/04/25 07:00:33;;;;;;;10.45;2.97;;;;;;;6.75;82.25;101178.06;5032960;28;20021;-76
2023/04/25 07:02:58;;;;;;;14.80;3.58;;;;;;;6.79;83.46;101184.97;5051013;28;20405;-76
2023/04/25 07:05:24;;;;;;;14.38;3.85;;;;;;;6.77;79.19;101181.53;5050509;28;20028;-76
2023/04/25 07:07:49;;;;;;;13.93;3.33;;;;;;;6.81;83.56;101183.94;5050897;28;20024;-76
2023/04/25 07:10:15;;;;;;;14.05;3.88;;;;;;;6.86;80.05;101183.72;5050839;28;20044;-76
2023/04/25 07:12:40;;;;;;;12.82;3.17;;;;;;;6.89;81.34;101191.56;5032940;28;20419;-76
2023/04/25 07:15:07;;;;;;;10.23;3.53;;;;;;;6.97;83.10;101189.34;5032773;28;20066;-76
2023/04/25 07:17:33;;;;;;;18.15;4.13;;;;;;;7.01;79.42;101190.03;5050648;28;20025;-76
2023/04/25 07:19:59;;;;;;;18.42;3.90;;;;;;;7.05;79.58;101202.31;5050585;28;20033;-76
2023/04/25 07:22:26;;;;;;;14.07;3.58;;;;;;;7.09;80.57;101201.19;5050777;28;20024;-76
2023/04/25 07:24:53;;;;;;;20.10;3.78;;;;;;;7.15;80.28;101206.22;5032462;28;20136;-76
2023/04/25 07:27:18;;;;;;;13.70;3.55;;;;;;;7.18;79.94;101202.53;5032833;28;20021;-76
2023/04/25 07:29:43;;;;;;;13.80;3.53;;;;;;;7.26;77.95;101210.13;5032588;28;20048;-76
2023/04/25 07:32:11;;;;;;;12.27;2.70;;;;;;;7.30;78.91;101207.19;5050675;28;20036;-76
2023/04/25 07:34:38;;;;;;;10.63;2.80;;;;;;;7.28;75.82;101214.44;5050496;28;20017;-76
2023/04/25 07:37:04;;;;;;;18.10;3.28;;;;;;;7.26;77.88;101219.03;5050589;28;20032;-76
2023/04/25 07:39:29;;;;;;;14.38;3.17;;;;;;;7.29;78.54;101215.31;5032647;28;20333;-76
2023/04/25 07:41:54;;;;;;;15.52;3.28;;;;;;;7.31;77.66;101229.47;5050866;28;20108;-76
2023/04/25 07:44:20;;;;;;;16.95;3.08;;;;;;;7.36;77.75;101230.06;5032499;28;20040;-76
2023/04/25 07:46:45;;;;;;;14.02;2.80;;;;;;;7.40;77.93;101230.78;5036352;28;20397;-76
2023/04/25 07:49:11;;;;;;;14.20;3.10;;;;;;;7.45;76.02;101236.75;5036356;28;20047;-76
2023/04/25 07:51:36;;;;;;;15.93;3.50;;;;;;;7.53;77.01;101231.84;5054298;28;20151;-76
2023/04/25 07:54:01;;;;;;;10.43;2.70;;;;;;;7.62;74.56;101236.69;5054338;28;20083;-76
2023/04/25 07:56:27;;;;;;;12.88;3.15;;;;;;;7.74;75.39;101236.97;5036064;28;20033;-76
2023/04/25 07:58:52;;;;;;;13.57;2.70;;;;;;;7.84;74.73;101239.03;5036147;28;20190;-76
2023/04/25 08:01:18;;;;;;;14.18;2.95;;;;;;;7.98;76.28;101242.75;5036053;28;20488;-77
2023/04/25 08:03:44;;;;;;;13.80;3.25;;;;;;;8.07;75.13;101249.41;5053886;28;20087;-76
2023/04/25 08:06:09;;;;;;;18.67;3.75;;;;;;;8.05;73.91;101247.69;5054098;28;20377;-76
2023/04/25 08:08:34;;;;;;;15.25;3.25;;;;;;;8.10;72.94;101251.94;5035966;28;20539;-76
2023/04/25 08:11:00;;;;;;;15.95;3.20;;;;;;;8.16;73.83;101249.75;5036194;28;20033;-76
2023/04/25 08:13:25;;;;;;;10.63;2.50;;;;;;;8.22;74.11;101252.06;5053824;28;20395;-76
2023/04/25 08:15:50;;;;;;;16.42;3.25;;;;;;;8.21;72.35;101257.53;5053846;28;20151;-76
2023/04/25 08:18:15;;;;;;;16.15;3.35;;;;;;;8.21;74.07;101263.75;5035792;28;20480;-76
2023/04/25 08:20:41;;;;;;;19.13;3.25;;;;;;;8.24;73.93;101268.06;5053658;28;20476;-77
2023/04/25 08:23:07;;;;;;;17.38;3.20;;;;;;;8.27;74.45;101273.22;5053771;28;20029;-77
2023/04/25 08:25:35;;;;;;;14.25;2.90;;;;;;;8.32;74.47;101275.66;5053404;28;20126;-76
2023/04/25 08:28:02;;;;;;;16.15;3.03;;;;;;;8.37;74.45;101281.63;5035793;28;20421;-76
2023/04/25 08:30:28;;;;;;;15.95;3.10;;;;;;;8.44;73.79;101282.13;5035622;28;20385;-76
2023/04/25 08:32:53;;;;;;;13.13;2.83;;;;;;;8.50;73.01;101282.66;5035668;28;20143;-77
2023/04/25 08:35:20;;;;;;;21.40;3.38;;;;;;;8.58;72.98;101287.59;5053413;28;20111;-77
2023/04/25 08:37:45;;;;;;;13.80;3.40;;;;;;;8.64;72.06;101292.59;5035613;28;20586;-77
2023/04/25 08:40:14;;;;;;;17.30;3.17;;;;;;;8.69;71.39;101290.50;5035296;28;20039;-77
2023/04/25 08:42:41;;;;;;;12.88;2.63;;;;;;;8.74;72.66;101293.78;5035451;28;20025;-76
2023/04/25 08:45:07;;;;;;;14.45;3.00;;;;;;;8.76;70.23;101300.88;5053095;28;20138;-76
2023/04/25 08:47:34;;;;;;;15.55;3.20;;;;;;;8.79;70.38;101306.06;5035094;28;20033;-76
2023/04/25 08:50:01;;;;;;;11.93;2.78;;;;;;;8.78;69.55;101305.19;5053056;28;20395;-74
2023/04/25 08:52:30;;;;;;;16.95;3.25;;;;;;;8.81;68.31;101301.47;5053103;28;20103;-75
2023/04/25 08:54:57;;;;;;;12.90;2.90;;;;;;;8.81;69.14;101309.50;5035172;28;20079;-74
2023/04/25 08:57:23;;;;;;;10.75;2.78;;;;;;;8.82;68.56;101317.44;5033818;28;20037;-75
2023/04/25 08:59:49;;;;;;;11.95;2.58;;;;;;;8.90;70.19;101320.56;5052942;28;20040;-74
2023/04/25 09:02:16;;;;;;;14.25;3.17;;;;;;;8.97;70.06;101331.75;5034715;28;20028;-74
2023/04/25 09:04:43;;;;;;;11.63;2.60;;;;;;;9.04;72.61;101327.78;5034769;28;20021;-75
2023/04/25 09:07:08;;;;;;;17.83;3.20;;;;;;;9.17;72.16;101332.41;5034836;28;20059;-75
2023/04/25 09:09:34;;;;;;;8.50;2.40;;;;;;;9.24;69.06;101347.19;5052947;28;20448;-75
2023/04/25 09:12:01;;;;;;;15.52;3.35;;;;;;;9.24;67.61;101340.00;5052797;28;20142;-75
2023/04/25 09:14:27;;;;;;;16.48;3.13;;;;;;;9.25;66.86;101347.09;5052419;28;20032;-75
2023/04/25 09:17:04;;;;;;;16.75;3.17;;;;;;;9.30;67.81;101344.13;5034712;28;20056;-75
2023/04/25 09:19:33;;;;;;;16.77;3.13;;;;;;;9.32;65.25;101352.94;5052381;28;20025;-75
2023/04/25 09:22:00;;;;;;;6.68;2.03;;;;;;;9.33;67.92;101357.34;5034554;28;20464;-74
2023/04/25 09:24:42;;;;;;;10.57;2.55;;;;;;;9.34;66.50;101364.47;5052000;28;20032;-75
2023/04/25 09:27:10;;;;;;;11.05;3.05;;;;;;;9.34;64.96;101361.78;5045328;28;20106;-75
2023/04/25 09:29:40;;;;;;;14.10;3.10;;;;;;;9.33;63.82;101364.56;5034447;28;20029;-74
2023/04/25 09:32:16;;;;;;;15.27;2.95;;;;;;;9.30;65.50;101376.31;5044413;28;20056;-74
2023/04/25 09:34:44;;;;;;;11.80;3.17;;;;;;;9.25;64.85;101373.03;5052252;28;20029;-75
2023/04/25 09:37:10;;;;;;;15.02;3.30;;;;;;;9.32;68.08;101360.13;5044103;28;20625;-75
2023/04/25 09:39:39;;;;;;;13.00;2.88;;;;;;;9.34;66.33;101363.56;5052221;28;20083;-75
2023/04/25 09:42:05;;;;;;;13.75;3.17;;;;;;;9.39;65.37;101370.41;5052139;28;20047;-75
2023/04/25 09:44:31;;;;;;;9.95;2.50;;;;;;;9.43;64.82;101371.09;5051972;28;20036;-74
2023/04/25 09:46:56;;;;;;;12.90;3.30;;;;;;;9.56;65.74;101369.41;5052010;28;20055;-75
2023/04/25 09:49:22;;;;;;;15.50;3.13;;;;;;;9.67;65.90;101366.03;5051885;28;20020;-75
2023/04/25 09:51:55;;;;;;;11.85;2.88;;;;;;;9.74;65.80;101361.16;5033991;28;20102;-75
2023/04/25 09:54:21;;;;;;;17.42;3.35;;;;;;;9.66;63.10;101366.13;5033916;28;20104;-75
2023/04/25 09:56:48;;;;;;;15.30;3.17;;;;;;;9.65;64.82;101364.41;5034118;28;20127;-75
2023/04/25 09:59:14;;;;;;;13.70;2.83;;;;;;;9.61;65.46;101371.78;5033643;28;20052;-75
2023/04/25 10:01:41;;;;;;;9.05;2.80;;;;;;;9.52;63.94;101373.22;5033906;28;20036;-75
2023/04/25 10:04:10;;;;;;;12.35;2.83;;;;;;;9.42;62.48;101382.78;5033690;28;20021;-75
2023/04/25 10:06:37;;;;;;;11.98;3.20;;;;;;;9.36;61.86;101380.47;5043051;28;20056;-74
2023/04/25 10:09:03;;;;;;;17.23;3.63;;;;;;;9.35;63.90;101384.94;5051362;28;20032;-75
2023/04/25 10:11:30;;;;;;;9.05;2.83;;;;;;;9.32;64.43;101382.44;5033519;28;20059;-74
2023/04/25 10:13:56;;;;;;;10.32;2.65;;;;;;;9.25;61.46;101373.03;5033571;28;20094;-75
2023/04/25 10:16:22;;;;;;;10.30;3.13;;;;;;;9.26;62.88;101374.78;5033537;28;20028;-75
2023/04/25 10:18:48;;;;;;;12.65;2.90;;;;;;;9.32;62.24;101385.13;5033381;28;20585;-74
2023/04/25 10:21:15;;;;;;;9.77;2.58;;;;;;;9.48;61.46;101368.13;5033320;28;20112;-75
2023/04/25 10:23:42;;;;;;;16.15;2.92;;;;;;;9.63;58.66;101375.22;5033224;28;20032;-75
2023/04/25 10:26:12;;;;;;;6.45;2.25;;;;;;;9.82;56.56;101374.97;5050267;28;20037;-75
2023/04/25 10:29:10;;;;;;;6.05;1.90;;;;;;;10.02;57.97;101373.72;5051193;28;20467;-75
2023/04/25 10:31:45;;;;;;;11.13;2.50;;;;;;;10.15;57.24;101377.38;4990179;28;20099;-75
2023/04/25 10:34:10;;;;;;;8.75;2.30;;;;;;;10.20;56.88;101369.03;5025909;28;20028;-75
2023/04/25 10:36:37;;;;;;;9.40;1.95;;;;;;;10.22;56.15;101376.97;5051140;28;20111;-75
2023/04/25 10:39:08;;;;;;;9.93;2.42;;;;;;;10.18;57.19;101386.22;5033088;28;20032;-77
2023/04/25 10:41:48;;;;;;;10.07;2.75;;;;;;;10.24;58.58;101388.50;5051242;28;20032;-75
2023/04/25 10:44:14;;;;;;;13.93;3.03;;;;;;;10.19;55.96;101385.22;5032791;28;20021;-74
2023/04/25 10:46:39;;;;;;;9.95;2.40;;;;;;;10.21;56.69;101388.69;5032971;28;20033;-75
2023/04/25 10:49:04;;;;;;;10.50;2.72;;;;;;;10.22;56.89;101393.09;5032785;28;20047;-75
2023/04/25 10:51:35;;;;;;;11.15;2.65;;;;;;;10.36;60.99;101386.91;5050978;28;20429;-75
2023/04/25 10:54:03;;;;;;;9.38;2.50;;;;;;;10.47;58.83;101393.31;5032986;28;20028;-75
2023/04/25 10:56:40;;;;;;;24.73;3.60;;;;;;;10.48;57.78;101389.66;5025119;28;20024;-75
2023/04/25 10:59:16;;;;;;;5.93;2.35;;;;;;;10.47;59.44;101382.56;5050728;28;20033;-75
2023/04/25 11:01:43;;;;;;;11.48;3.10;;;;;;;10.39;56.66;101381.31;5032619;28;20024;-75
2023/04/25 11:04:33;;;;;;;4.78;2.40;;;;;;;10.31;57.82;101390.69;5032728;28;20495;-75
2023/04/25 11:07:02;;;;;;;20.20;3.05;;;;;;;10.15;57.59;101396.19;5027600;28;20064;-75
2023/04/25 11:09:27;;;;;;;11.45;2.47;;;;;;;9.99;58.41;101394.56;5032718;28;20443;-74
2023/04/25 11:11:58;;;;;;;18.20;2.90;;;;;;;9.89;60.33;101399.63;5050844;28;20178;-75
2023/04/25 11:14:23;;;;;;;7.55;2.63;;;;;;;9.78;63.10;101398.47;5032729;28;20108;-75
2023/04/25 11:16:55;;;;;;;11.18;2.58;;;;;;;9.66;64.19;101404.56;5050736;28;20108;-74